sensor_id;sensor_type;location;lat;lon;timestamp;temperature;humidity
64961;SHT31;51487;52.266;10.542;2023-08-07T00:00:50;16.21;94.88
64961;SHT31;51487;52.266;10.542;2023-08-07T00:03:15;16.25;94.99
64961;SHT31;51487;52.266;10.542;2023-08-07T00:05:47;16.18;95.28
64961;SHT31;51487;52.266;10.542;2023-08-07T00:08:13;16.21;95.06
64961;SHT31;51487;52.266;10.542;2023-08-07T00:10:39;16.18;95.25
64961;SHT31;51487;52.266;10.542;2023-08-07T00:13:04;16.18;95.67
64961;SHT31;51487;52.266;10.542;2023-08-07T00:15:30;16.21;95.49
64961;SHT31;51487;52.266;10.542;2023-08-07T00:17:56;16.26;95.25
64961;SHT31;51487;52.266;10.542;2023-08-07T00:20:21;16.23;95.04
64961;SHT31;51487;52.266;10.542;2023-08-07T00:22:47;16.23;95.25
64961;SHT31;51487;52.266;10.542;2023-08-07T00:25:13;16.30;94.89
64961;SHT31;51487;52.266;10.542;2023-08-07T00:27:38;16.23;95.15
64961;SHT31;51487;52.266;10.542;2023-08-07T00:30:04;16.23;95.25
64961;SHT31;51487;52.266;10.542;2023-08-07T00:32:30;16.23;94.76
64961;SHT31;51487;52.266;10.542;2023-08-07T00:34:57;16.21;94.72
64961;SHT31;51487;52.266;10.542;2023-08-07T00:37:23;16.30;94.58
64961;SHT31;51487;52.266;10.542;2023-08-07T00:39:48;16.30;94.52
64961;SHT31;51487;52.266;10.542;2023-08-07T00:42:14;16.28;94.60
64961;SHT31;51487;52.266;10.542;2023-08-07T00:44:39;16.22;94.87
64961;SHT31;51487;52.266;10.542;2023-08-07T00:47:06;16.15;95.00
64961;SHT31;51487;52.266;10.542;2023-08-07T00:49:32;16.23;94.45
64961;SHT31;51487;52.266;10.542;2023-08-07T00:51:58;16.12;94.56
64961;SHT31;51487;52.266;10.542;2023-08-07T00:54:25;16.22;94.23
64961;SHT31;51487;52.266;10.542;2023-08-07T00:56:51;16.05;94.23
64961;SHT31;51487;52.266;10.542;2023-08-07T00:59:18;15.85;95.09
64961;SHT31;51487;52.266;10.542;2023-08-07T01:01:44;15.71;97.22
64961;SHT31;51487;52.266;10.542;2023-08-07T01:04:09;15.44;98.51
64961;SHT31;51487;52.266;10.542;2023-08-07T01:06:35;15.30;97.68
64961;SHT31;51487;52.266;10.542;2023-08-07T01:09:01;15.30;96.79
64961;SHT31;51487;52.266;10.542;2023-08-07T01:11:49;15.29;97.00
64961;SHT31;51487;52.266;10.542;2023-08-07T01:17:16;15.05;97.84
64961;SHT31;51487;52.266;10.542;2023-08-07T01:19:42;15.03;98.03
64961;SHT31;51487;52.266;10.542;2023-08-07T01:22:18;15.09;97.93
64961;SHT31;51487;52.266;10.542;2023-08-07T01:24:47;15.03;98.02
64961;SHT31;51487;52.266;10.542;2023-08-07T01:27:26;14.96;98.59
64961;SHT31;51487;52.266;10.542;2023-08-07T01:30:42;15.00;98.85
64961;SHT31;51487;52.266;10.542;2023-08-07T01:33:15;15.06;98.81
64961;SHT31;51487;52.266;10.542;2023-08-07T01:35:46;15.05;99.37
64961;SHT31;51487;52.266;10.542;2023-08-07T01:38:13;15.00;99.29
64961;SHT31;51487;52.266;10.542;2023-08-07T01:40:41;15.18;99.39
64961;SHT31;51487;52.266;10.542;2023-08-07T01:43:07;15.16;99.30
64961;SHT31;51487;52.266;10.542;2023-08-07T01:45:34;15.20;99.47
64961;SHT31;51487;52.266;10.542;2023-08-07T01:48:00;15.18;99.72
64961;SHT31;51487;52.266;10.542;2023-08-07T01:50:26;15.23;99.50
64961;SHT31;51487;52.266;10.542;2023-08-07T01:52:51;15.16;99.79
64961;SHT31;51487;52.266;10.542;2023-08-07T01:55:19;15.20;99.99
64961;SHT31;51487;52.266;10.542;2023-08-07T01:57:45;15.23;99.67
64961;SHT31;51487;52.266;10.542;2023-08-07T02:00:11;15.24;99.79
64961;SHT31;51487;52.266;10.542;2023-08-07T02:02:37;15.20;99.99
64961;SHT31;51487;52.266;10.542;2023-08-07T02:05:04;15.24;99.99
64961;SHT31;51487;52.266;10.542;2023-08-07T02:07:30;15.22;99.91
64961;SHT31;51487;52.266;10.542;2023-08-07T02:09:57;15.23;99.98
64961;SHT31;51487;52.266;10.542;2023-08-07T02:12:23;15.37;99.80
64961;SHT31;51487;52.266;10.542;2023-08-07T02:14:50;15.32;99.75
64961;SHT31;51487;52.266;10.542;2023-08-07T02:17:16;15.39;99.62
64961;SHT31;51487;52.266;10.542;2023-08-07T02:19:41;15.42;99.38
64961;SHT31;51487;52.266;10.542;2023-08-07T02:22:07;15.33;99.70
64961;SHT31;51487;52.266;10.542;2023-08-07T02:24:32;15.37;99.78
64961;SHT31;51487;52.266;10.542;2023-08-07T02:26:58;15.39;99.19
64961;SHT31;51487;52.266;10.542;2023-08-07T02:29:23;15.37;99.30
64961;SHT31;51487;52.266;10.542;2023-08-07T02:31:49;15.49;99.22
64961;SHT31;51487;52.266;10.542;2023-08-07T02:34:14;15.46;99.45
64961;SHT31;51487;52.266;10.542;2023-08-07T02:36:40;15.50;99.04
64961;SHT31;51487;52.266;10.542;2023-08-07T02:39:07;15.55;98.73
64961;SHT31;51487;52.266;10.542;2023-08-07T02:41:32;15.57;98.41
64961;SHT31;51487;52.266;10.542;2023-08-07T02:43:58;15.54;98.82
64961;SHT31;51487;52.266;10.542;2023-08-07T02:46:23;15.53;98.85
64961;SHT31;51487;52.266;10.542;2023-08-07T02:48:49;15.50;98.95
64961;SHT31;51487;52.266;10.542;2023-08-07T02:51:14;15.44;99.31
64961;SHT31;51487;52.266;10.542;2023-08-07T02:53:40;15.49;99.33
64961;SHT31;51487;52.266;10.542;2023-08-07T02:56:05;15.50;99.08
64961;SHT31;51487;52.266;10.542;2023-08-07T02:58:31;15.54;98.87
64961;SHT31;51487;52.266;10.542;2023-08-07T03:00:57;15.50;99.03
64961;SHT31;51487;52.266;10.542;2023-08-07T03:03:27;15.47;99.06
64961;SHT31;51487;52.266;10.542;2023-08-07T03:05:53;15.54;98.46
64961;SHT31;51487;52.266;10.542;2023-08-07T03:08:18;15.49;98.44
64961;SHT31;51487;52.266;10.542;2023-08-07T03:10:52;15.46;98.55
64961;SHT31;51487;52.266;10.542;2023-08-07T03:13:18;15.40;99.04
64961;SHT31;51487;52.266;10.542;2023-08-07T03:15:44;15.50;98.30
64961;SHT31;51487;52.266;10.542;2023-08-07T03:18:10;15.46;98.45
64961;SHT31;51487;52.266;10.542;2023-08-07T03:20:38;15.44;98.34
64961;SHT31;51487;52.266;10.542;2023-08-07T03:23:03;15.46;98.38
64961;SHT31;51487;52.266;10.542;2023-08-07T03:25:29;15.42;98.56
64961;SHT31;51487;52.266;10.542;2023-08-07T03:27:54;15.44;97.98
64961;SHT31;51487;52.266;10.542;2023-08-07T03:30:20;15.40;98.46
64961;SHT31;51487;52.266;10.542;2023-08-07T03:32:46;15.34;97.95
64961;SHT31;51487;52.266;10.542;2023-08-07T03:35:11;15.33;98.22
64961;SHT31;51487;52.266;10.542;2023-08-07T03:37:37;15.27;98.22
64961;SHT31;51487;52.266;10.542;2023-08-07T03:40:03;15.36;98.32
64961;SHT31;51487;52.266;10.542;2023-08-07T03:42:29;15.33;98.10
64961;SHT31;51487;52.266;10.542;2023-08-07T03:44:54;15.40;97.95
64961;SHT31;51487;52.266;10.542;2023-08-07T03:47:20;15.40;97.76
64961;SHT31;51487;52.266;10.542;2023-08-07T03:49:45;15.42;97.62
64961;SHT31;51487;52.266;10.542;2023-08-07T03:52:11;15.40;97.81
64961;SHT31;51487;52.266;10.542;2023-08-07T03:54:36;15.30;97.38
64961;SHT31;51487;52.266;10.542;2023-08-07T03:57:02;15.30;97.83
64961;SHT31;51487;52.266;10.542;2023-08-07T03:59:27;15.33;97.52
64961;SHT31;51487;52.266;10.542;2023-08-07T04:01:53;15.32;97.79
64961;SHT31;51487;52.266;10.542;2023-08-07T04:04:18;15.33;97.71
64961;SHT31;51487;52.266;10.542;2023-08-07T04:06:44;15.36;97.46
64961;SHT31;51487;52.266;10.542;2023-08-07T04:09:10;15.39;97.09
64961;SHT31;51487;52.266;10.542;2023-08-07T04:11:36;15.47;97.29
64961;SHT31;51487;52.266;10.542;2023-08-07T04:14:02;15.42;97.18
64961;SHT31;51487;52.266;10.542;2023-08-07T04:16:27;15.34;97.21
64961;SHT31;51487;52.266;10.542;2023-08-07T04:18:53;15.36;97.34
64961;SHT31;51487;52.266;10.542;2023-08-07T04:21:18;15.44;96.73
64961;SHT31;51487;52.266;10.542;2023-08-07T04:23:44;15.36;96.84
64961;SHT31;51487;52.266;10.542;2023-08-07T04:26:09;15.26;97.09
64961;SHT31;51487;52.266;10.542;2023-08-07T04:28:35;15.32;97.37
64961;SHT31;51487;52.266;10.542;2023-08-07T04:31:00;15.37;97.04
64961;SHT31;51487;52.266;10.542;2023-08-07T04:33:26;15.30;97.33
64961;SHT31;51487;52.266;10.542;2023-08-07T04:35:51;15.40;97.28
64961;SHT31;51487;52.266;10.542;2023-08-07T04:38:17;15.36;97.42
64961;SHT31;51487;52.266;10.542;2023-08-07T04:40:48;15.43;96.95
64961;SHT31;51487;52.266;10.542;2023-08-07T04:43:15;15.32;97.25
64961;SHT31;51487;52.266;10.542;2023-08-07T04:45:41;15.37;97.18
64961;SHT31;51487;52.266;10.542;2023-08-07T04:48:07;15.39;97.05
64961;SHT31;51487;52.266;10.542;2023-08-07T04:50:33;15.49;96.80
64961;SHT31;51487;52.266;10.542;2023-08-07T04:52:59;15.42;97.11
64961;SHT31;51487;52.266;10.542;2023-08-07T04:55:26;15.49;96.62
64961;SHT31;51487;52.266;10.542;2023-08-07T04:57:51;15.47;96.41
64961;SHT31;51487;52.266;10.542;2023-08-07T05:00:21;15.49;96.22
64961;SHT31;51487;52.266;10.542;2023-08-07T05:02:46;15.50;96.35
64961;SHT31;51487;52.266;10.542;2023-08-07T05:05:14;15.55;96.31
64961;SHT31;51487;52.266;10.542;2023-08-07T05:07:41;15.64;96.27
64961;SHT31;51487;52.266;10.542;2023-08-07T05:10:08;15.60;96.41
64961;SHT31;51487;52.266;10.542;2023-08-07T05:12:34;15.55;96.95
64961;SHT31;51487;52.266;10.542;2023-08-07T05:14:59;15.49;97.47
64961;SHT31;51487;52.266;10.542;2023-08-07T05:17:25;15.53;97.60
64961;SHT31;51487;52.266;10.542;2023-08-07T05:19:50;15.51;98.22
64961;SHT31;51487;52.266;10.542;2023-08-07T05:22:16;15.47;98.03
64961;SHT31;51487;52.266;10.542;2023-08-07T05:24:42;15.54;98.23
64961;SHT31;51487;52.266;10.542;2023-08-07T05:27:09;15.58;98.30
64961;SHT31;51487;52.266;10.542;2023-08-07T05:29:35;15.50;98.39
64961;SHT31;51487;52.266;10.542;2023-08-07T05:32:09;15.60;98.26
64961;SHT31;51487;52.266;10.542;2023-08-07T05:34:35;15.53;99.00
64961;SHT31;51487;52.266;10.542;2023-08-07T05:37:01;15.58;99.04
64961;SHT31;51487;52.266;10.542;2023-08-07T05:39:26;15.58;98.68
64961;SHT31;51487;52.266;10.542;2023-08-07T05:41:52;15.58;98.06
64961;SHT31;51487;52.266;10.542;2023-08-07T05:44:19;15.74;97.86
64961;SHT31;51487;52.266;10.542;2023-08-07T05:46:44;15.80;97.83
64961;SHT31;51487;52.266;10.542;2023-08-07T05:49:10;15.87;97.32
64961;SHT31;51487;52.266;10.542;2023-08-07T05:51:35;15.82;97.79
64961;SHT31;51487;52.266;10.542;2023-08-07T05:54:01;15.71;97.71
64961;SHT31;51487;52.266;10.542;2023-08-07T05:56:26;15.65;98.50
64961;SHT31;51487;52.266;10.542;2023-08-07T05:58:52;15.63;98.90
64961;SHT31;51487;52.266;10.542;2023-08-07T06:01:17;15.68;98.84
64961;SHT31;51487;52.266;10.542;2023-08-07T06:03:43;15.68;98.90
64961;SHT31;51487;52.266;10.542;2023-08-07T06:06:09;15.55;98.92
64961;SHT31;51487;52.266;10.542;2023-08-07T06:08:34;15.57;99.33
64961;SHT31;51487;52.266;10.542;2023-08-07T06:11:00;15.49;99.13
64961;SHT31;51487;52.266;10.542;2023-08-07T06:13:29;15.54;99.24
64961;SHT31;51487;52.266;10.542;2023-08-07T06:15:54;15.58;98.77
64961;SHT31;51487;52.266;10.542;2023-08-07T06:18:20;15.65;98.83
64961;SHT31;51487;52.266;10.542;2023-08-07T06:20:46;15.49;98.85
64961;SHT31;51487;52.266;10.542;2023-08-07T06:23:12;15.57;98.60
64961;SHT31;51487;52.266;10.542;2023-08-07T06:25:38;15.55;98.49
64961;SHT31;51487;52.266;10.542;2023-08-07T06:28:03;15.49;98.84
64961;SHT31;51487;52.266;10.542;2023-08-07T06:30:31;15.49;98.83
64961;SHT31;51487;52.266;10.542;2023-08-07T06:32:56;15.47;99.32
64961;SHT31;51487;52.266;10.542;2023-08-07T06:35:22;15.36;99.22
64961;SHT31;51487;52.266;10.542;2023-08-07T06:37:48;15.14;99.56
64961;SHT31;51487;52.266;10.542;2023-08-07T06:40:14;15.16;99.70
64961;SHT31;51487;52.266;10.542;2023-08-07T06:42:39;15.02;99.20
64961;SHT31;51487;52.266;10.542;2023-08-07T06:45:05;15.14;99.49
64961;SHT31;51487;52.266;10.542;2023-08-07T06:47:32;15.05;99.25
64961;SHT31;51487;52.266;10.542;2023-08-07T06:49:57;15.06;99.99
64961;SHT31;51487;52.266;10.542;2023-08-07T06:52:23;15.09;99.11
64961;SHT31;51487;52.266;10.542;2023-08-07T06:54:48;15.02;98.48
64961;SHT31;51487;52.266;10.542;2023-08-07T06:57:14;15.02;97.49
64961;SHT31;51487;52.266;10.542;2023-08-07T06:59:39;15.16;97.17
64961;SHT31;51487;52.266;10.542;2023-08-07T07:02:06;15.18;98.12
64961;SHT31;51487;52.266;10.542;2023-08-07T07:04:31;15.42;98.18
64961;SHT31;51487;52.266;10.542;2023-08-07T07:06:58;15.64;98.29
64961;SHT31;51487;52.266;10.542;2023-08-07T07:09:24;15.84;98.23
64961;SHT31;51487;52.266;10.542;2023-08-07T07:11:50;15.84;97.32
64961;SHT31;51487;52.266;10.542;2023-08-07T07:14:15;15.92;97.24
64961;SHT31;51487;52.266;10.542;2023-08-07T07:16:41;15.88;97.74
64961;SHT31;51487;52.266;10.542;2023-08-07T07:19:07;15.94;96.43
64961;SHT31;51487;52.266;10.542;2023-08-07T07:21:35;15.98;96.62
64961;SHT31;51487;52.266;10.542;2023-08-07T07:24:02;15.88;96.44
64961;SHT31;51487;52.266;10.542;2023-08-07T07:26:28;16.02;95.71
64961;SHT31;51487;52.266;10.542;2023-08-07T07:28:54;15.92;96.12
64961;SHT31;51487;52.266;10.542;2023-08-07T07:31:19;15.94;95.35
64961;SHT31;51487;52.266;10.542;2023-08-07T07:33:45;15.97;95.71
64961;SHT31;51487;52.266;10.542;2023-08-07T07:36:16;15.95;95.21
64961;SHT31;51487;52.266;10.542;2023-08-07T07:38:42;16.02;95.29
64961;SHT31;51487;52.266;10.542;2023-08-07T07:41:08;16.26;94.82
64961;SHT31;51487;52.266;10.542;2023-08-07T07:43:37;16.48;94.14
64961;SHT31;51487;52.266;10.542;2023-08-07T07:46:03;16.34;93.82
64961;SHT31;51487;52.266;10.542;2023-08-07T07:48:29;16.55;92.86
64961;SHT31;51487;52.266;10.542;2023-08-07T07:51:02;16.50;92.46
64961;SHT31;51487;52.266;10.542;2023-08-07T07:53:28;16.56;91.96
64961;SHT31;51487;52.266;10.542;2023-08-07T07:55:54;16.69;92.67
64961;SHT31;51487;52.266;10.542;2023-08-07T07:58:20;16.66;92.24
64961;SHT31;51487;52.266;10.542;2023-08-07T08:00:46;16.84;91.97
64961;SHT31;51487;52.266;10.542;2023-08-07T08:03:12;16.85;91.43
64961;SHT31;51487;52.266;10.542;2023-08-07T08:05:38;17.01;90.76
64961;SHT31;51487;52.266;10.542;2023-08-07T08:08:06;17.01;89.98
64961;SHT31;51487;52.266;10.542;2023-08-07T08:10:35;17.21;90.49
64961;SHT31;51487;52.266;10.542;2023-08-07T08:13:01;17.21;90.14
64961;SHT31;51487;52.266;10.542;2023-08-07T08:15:29;17.17;89.54
64961;SHT31;51487;52.266;10.542;2023-08-07T08:17:55;17.24;89.97
64961;SHT31;51487;52.266;10.542;2023-08-07T08:20:20;17.15;89.41
64961;SHT31;51487;52.266;10.542;2023-08-07T08:22:46;17.15;89.47
64961;SHT31;51487;52.266;10.542;2023-08-07T08:25:12;17.27;89.56
64961;SHT31;51487;52.266;10.542;2023-08-07T08:27:39;17.49;88.38
64961;SHT31;51487;52.266;10.542;2023-08-07T08:30:06;17.56;88.20
64961;SHT31;51487;52.266;10.542;2023-08-07T08:32:32;17.48;88.47
64961;SHT31;51487;52.266;10.542;2023-08-07T08:34:58;17.61;86.73
64961;SHT31;51487;52.266;10.542;2023-08-07T08:37:23;17.66;87.45
64961;SHT31;51487;52.266;10.542;2023-08-07T08:39:49;17.65;86.94
64961;SHT31;51487;52.266;10.542;2023-08-07T08:42:15;17.50;86.82
64961;SHT31;51487;52.266;10.542;2023-08-07T08:44:52;17.66;86.48
64961;SHT31;51487;52.266;10.542;2023-08-07T08:47:20;17.48;86.16
64961;SHT31;51487;52.266;10.542;2023-08-07T08:49:51;17.65;85.94
64961;SHT31;51487;52.266;10.542;2023-08-07T08:52:18;17.80;85.31
64961;SHT31;51487;52.266;10.542;2023-08-07T08:54:44;17.90;84.34
64961;SHT31;51487;52.266;10.542;2023-08-07T08:57:11;18.08;85.32
64961;SHT31;51487;52.266;10.542;2023-08-07T08:59:39;18.06;84.36
64961;SHT31;51487;52.266;10.542;2023-08-07T09:02:05;18.10;83.98
64961;SHT31;51487;52.266;10.542;2023-08-07T09:04:31;17.75;83.69
64961;SHT31;51487;52.266;10.542;2023-08-07T09:06:57;17.77;83.55
64961;SHT31;51487;52.266;10.542;2023-08-07T09:09:24;17.73;84.39
64961;SHT31;51487;52.266;10.542;2023-08-07T09:11:50;17.69;84.29
64961;SHT31;51487;52.266;10.542;2023-08-07T09:14:25;17.45;85.05
64961;SHT31;51487;52.266;10.542;2023-08-07T09:16:52;17.45;85.64
64961;SHT31;51487;52.266;10.542;2023-08-07T09:19:19;17.43;87.00
64961;SHT31;51487;52.266;10.542;2023-08-07T09:21:45;17.61;87.45
64961;SHT31;51487;52.266;10.542;2023-08-07T09:24:10;17.73;87.25
64961;SHT31;51487;52.266;10.542;2023-08-07T09:26:38;17.96;86.64
64961;SHT31;51487;52.266;10.542;2023-08-07T09:29:08;17.99;86.57
64961;SHT31;51487;52.266;10.542;2023-08-07T09:31:37;17.80;86.73
64961;SHT31;51487;52.266;10.542;2023-08-07T09:34:03;17.77;87.73
64961;SHT31;51487;52.266;10.542;2023-08-07T09:36:34;17.43;91.50
64961;SHT31;51487;52.266;10.542;2023-08-07T09:39:03;17.24;92.61
64961;SHT31;51487;52.266;10.542;2023-08-07T09:41:30;16.94;91.91
64961;SHT31;51487;52.266;10.542;2023-08-07T09:43:57;16.80;92.48
64961;SHT31;51487;52.266;10.542;2023-08-07T09:46:25;16.83;93.30
64961;SHT31;51487;52.266;10.542;2023-08-07T09:48:51;16.66;92.30
64961;SHT31;51487;52.266;10.542;2023-08-07T09:51:16;16.52;93.15
64961;SHT31;51487;52.266;10.542;2023-08-07T09:53:42;16.42;93.47
64961;SHT31;51487;52.266;10.542;2023-08-07T09:56:08;16.63;94.05
64961;SHT31;51487;52.266;10.542;2023-08-07T09:58:34;16.46;93.44
64961;SHT31;51487;52.266;10.542;2023-08-07T10:01:03;16.53;93.35
64961;SHT31;51487;52.266;10.542;2023-08-07T10:03:29;16.34;91.51
64961;SHT31;51487;52.266;10.542;2023-08-07T10:05:55;16.21;91.37
64961;SHT31;51487;52.266;10.542;2023-08-07T10:08:22;16.63;90.04
64961;SHT31;51487;52.266;10.542;2023-08-07T10:10:48;16.57;89.79
64961;SHT31;51487;52.266;10.542;2023-08-07T10:13:14;16.69;89.60
64961;SHT31;51487;52.266;10.542;2023-08-07T10:15:40;16.57;90.43
64961;SHT31;51487;52.266;10.542;2023-08-07T10:18:08;16.87;90.18
64961;SHT31;51487;52.266;10.542;2023-08-07T10:20:36;17.00;89.85
64961;SHT31;51487;52.266;10.542;2023-08-07T10:23:10;17.21;88.70
64961;SHT31;51487;52.266;10.542;2023-08-07T10:25:41;17.38;90.76
64961;SHT31;51487;52.266;10.542;2023-08-07T10:28:16;17.42;89.26
64961;SHT31;51487;52.266;10.542;2023-08-07T10:30:42;17.62;89.90
64961;SHT31;51487;52.266;10.542;2023-08-07T10:33:10;17.62;90.63
64961;SHT31;51487;52.266;10.542;2023-08-07T10:35:37;17.73;90.97
64961;SHT31;51487;52.266;10.542;2023-08-07T10:38:10;17.82;89.13
64961;SHT31;51487;52.266;10.542;2023-08-07T10:43:42;18.00;89.12
64961;SHT31;51487;52.266;10.542;2023-08-07T10:46:14;17.96;89.78
64961;SHT31;51487;52.266;10.542;2023-08-07T10:48:47;18.13;88.40
64961;SHT31;51487;52.266;10.542;2023-08-07T10:51:19;18.23;86.61
64961;SHT31;51487;52.266;10.542;2023-08-07T10:53:48;18.27;85.36
64961;SHT31;51487;52.266;10.542;2023-08-07T10:56:29;18.06;86.69
64961;SHT31;51487;52.266;10.542;2023-08-07T10:58:55;17.59;88.16
64961;SHT31;51487;52.266;10.542;2023-08-07T11:01:40;17.58;89.36
64961;SHT31;51487;52.266;10.542;2023-08-07T11:04:08;17.66;88.72
64961;SHT31;51487;52.266;10.542;2023-08-07T11:06:36;18.17;87.55
64961;SHT31;51487;52.266;10.542;2023-08-07T11:09:05;18.07;88.72
64961;SHT31;51487;52.266;10.542;2023-08-07T11:11:39;18.10;88.28
64961;SHT31;51487;52.266;10.542;2023-08-07T11:14:14;17.70;89.40
64961;SHT31;51487;52.266;10.542;2023-08-07T11:16:42;17.66;89.40
64961;SHT31;51487;52.266;10.542;2023-08-07T11:19:08;17.68;89.03
64961;SHT31;51487;52.266;10.542;2023-08-07T11:21:34;17.18;87.92
64961;SHT31;51487;52.266;10.542;2023-08-07T11:24:01;17.31;87.40
64961;SHT31;51487;52.266;10.542;2023-08-07T11:26:27;17.76;86.26
64961;SHT31;51487;52.266;10.542;2023-08-07T11:28:54;17.72;84.71
64961;SHT31;51487;52.266;10.542;2023-08-07T11:31:21;17.52;84.64
64961;SHT31;51487;52.266;10.542;2023-08-07T11:33:56;17.50;83.21
64961;SHT31;51487;52.266;10.542;2023-08-07T11:36:23;17.68;82.24
64961;SHT31;51487;52.266;10.542;2023-08-07T11:38:49;17.89;82.39
64961;SHT31;51487;52.266;10.542;2023-08-07T11:41:17;17.79;81.33
64961;SHT31;51487;52.266;10.542;2023-08-07T11:43:43;17.85;80.90
64961;SHT31;51487;52.266;10.542;2023-08-07T11:46:14;17.61;81.66
64961;SHT31;51487;52.266;10.542;2023-08-07T11:48:43;17.21;83.11
64961;SHT31;51487;52.266;10.542;2023-08-07T11:51:08;17.04;83.76
64961;SHT31;51487;52.266;10.542;2023-08-07T11:53:36;16.80;85.10
64961;SHT31;51487;52.266;10.542;2023-08-07T11:56:08;16.81;84.71
64961;SHT31;51487;52.266;10.542;2023-08-07T11:58:39;16.49;85.88
64961;SHT31;51487;52.266;10.542;2023-08-07T12:01:10;16.57;85.87
64961;SHT31;51487;52.266;10.542;2023-08-07T12:03:38;16.39;85.37
64961;SHT31;51487;52.266;10.542;2023-08-07T12:06:06;16.45;85.65
64961;SHT31;51487;52.266;10.542;2023-08-07T12:08:42;16.22;85.84
64961;SHT31;51487;52.266;10.542;2023-08-07T12:11:12;16.59;85.61
64961;SHT31;51487;52.266;10.542;2023-08-07T12:13:43;16.66;84.89
64961;SHT31;51487;52.266;10.542;2023-08-07T12:16:10;16.83;84.70
64961;SHT31;51487;52.266;10.542;2023-08-07T12:18:50;17.19;83.99
64961;SHT31;51487;52.266;10.542;2023-08-07T12:21:19;17.40;83.54
64961;SHT31;51487;52.266;10.542;2023-08-07T12:23:46;17.53;82.97
64961;SHT31;51487;52.266;10.542;2023-08-07T12:26:15;17.42;83.70
64961;SHT31;51487;52.266;10.542;2023-08-07T12:28:40;17.69;82.42
64961;SHT31;51487;52.266;10.542;2023-08-07T12:31:06;17.87;78.64
64961;SHT31;51487;52.266;10.542;2023-08-07T12:33:33;18.07;78.35
64961;SHT31;51487;52.266;10.542;2023-08-07T12:35:59;18.37;76.73
64961;SHT31;51487;52.266;10.542;2023-08-07T12:38:25;18.26;77.75
64961;SHT31;51487;52.266;10.542;2023-08-07T12:40:52;17.70;78.74
64961;SHT31;51487;52.266;10.542;2023-08-07T12:43:17;17.46;78.50
64961;SHT31;51487;52.266;10.542;2023-08-07T12:45:43;17.24;77.50
64961;SHT31;51487;52.266;10.542;2023-08-07T12:48:09;17.36;76.54
64961;SHT31;51487;52.266;10.542;2023-08-07T12:50:35;17.39;75.91
64961;SHT31;51487;52.266;10.542;2023-08-07T12:53:01;17.85;75.30
64961;SHT31;51487;52.266;10.542;2023-08-07T12:55:28;17.94;74.71
64961;SHT31;51487;52.266;10.542;2023-08-07T12:57:55;17.87;75.76
64961;SHT31;51487;52.266;10.542;2023-08-07T13:00:21;17.83;76.18
64961;SHT31;51487;52.266;10.542;2023-08-07T13:02:49;17.87;75.64
64961;SHT31;51487;52.266;10.542;2023-08-07T13:05:16;17.56;75.53
64961;SHT31;51487;52.266;10.542;2023-08-07T13:07:46;17.48;75.47
64961;SHT31;51487;52.266;10.542;2023-08-07T13:10:15;17.58;75.35
64961;SHT31;51487;52.266;10.542;2023-08-07T13:12:43;17.42;74.20
64961;SHT31;51487;52.266;10.542;2023-08-07T13:15:12;17.27;74.43
64961;SHT31;51487;52.266;10.542;2023-08-07T13:17:39;17.32;75.07
64961;SHT31;51487;52.266;10.542;2023-08-07T13:20:06;17.39;74.09
64961;SHT31;51487;52.266;10.542;2023-08-07T13:22:35;17.72;74.40
64961;SHT31;51487;52.266;10.542;2023-08-07T13:25:00;17.96;73.59
64961;SHT31;51487;52.266;10.542;2023-08-07T13:27:29;17.90;72.24
64961;SHT31;51487;52.266;10.542;2023-08-07T13:29:54;18.26;72.45
64961;SHT31;51487;52.266;10.542;2023-08-07T13:32:20;18.49;70.70
64961;SHT31;51487;52.266;10.542;2023-08-07T13:34:45;18.14;69.54
64961;SHT31;51487;52.266;10.542;2023-08-07T13:37:11;18.21;70.59
64961;SHT31;51487;52.266;10.542;2023-08-07T13:39:37;18.43;70.24
64961;SHT31;51487;52.266;10.542;2023-08-07T13:42:03;18.36;68.68
64961;SHT31;51487;52.266;10.542;2023-08-07T13:44:28;18.49;68.84
64961;SHT31;51487;52.266;10.542;2023-08-07T13:46:55;18.48;67.75
64961;SHT31;51487;52.266;10.542;2023-08-07T13:49:22;18.49;66.25
64961;SHT31;51487;52.266;10.542;2023-08-07T13:51:49;18.61;66.23
64961;SHT31;51487;52.266;10.542;2023-08-07T13:54:15;18.52;68.02
64961;SHT31;51487;52.266;10.542;2023-08-07T13:56:40;17.87;70.12
64961;SHT31;51487;52.266;10.542;2023-08-07T13:59:06;17.86;69.48
64961;SHT31;51487;52.266;10.542;2023-08-07T14:01:32;17.62;70.06
64961;SHT31;51487;52.266;10.542;2023-08-07T14:03:59;17.32;72.13
64961;SHT31;51487;52.266;10.542;2023-08-07T14:06:25;17.15;73.68
64961;SHT31;51487;52.266;10.542;2023-08-07T14:08:50;16.84;76.06
64961;SHT31;51487;52.266;10.542;2023-08-07T14:11:16;16.60;78.87
64961;SHT31;51487;52.266;10.542;2023-08-07T14:13:41;16.49;79.12
64961;SHT31;51487;52.266;10.542;2023-08-07T14:16:07;16.52;78.96
64961;SHT31;51487;52.266;10.542;2023-08-07T14:18:33;16.80;77.16
64961;SHT31;51487;52.266;10.542;2023-08-07T14:20:59;16.84;76.56
64961;SHT31;51487;52.266;10.542;2023-08-07T14:23:24;17.11;76.07
64961;SHT31;51487;52.266;10.542;2023-08-07T14:25:50;17.40;74.93
64961;SHT31;51487;52.266;10.542;2023-08-07T14:28:18;17.76;73.35
64961;SHT31;51487;52.266;10.542;2023-08-07T14:30:44;17.75;73.43
64961;SHT31;51487;52.266;10.542;2023-08-07T14:33:10;17.87;72.71
64961;SHT31;51487;52.266;10.542;2023-08-07T14:35:35;18.10;72.44
64961;SHT31;51487;52.266;10.542;2023-08-07T14:38:01;18.27;71.26
64961;SHT31;51487;52.266;10.542;2023-08-07T14:40:26;18.45;71.06
64961;SHT31;51487;52.266;10.542;2023-08-07T14:42:54;18.28;71.11
64961;SHT31;51487;52.266;10.542;2023-08-07T14:45:21;18.37;69.69
64961;SHT31;51487;52.266;10.542;2023-08-07T14:47:48;18.17;69.71
64961;SHT31;51487;52.266;10.542;2023-08-07T14:50:13;18.13;69.49
64961;SHT31;51487;52.266;10.542;2023-08-07T14:52:41;18.07;68.82
64961;SHT31;51487;52.266;10.542;2023-08-07T14:55:06;18.01;68.27
64961;SHT31;51487;52.266;10.542;2023-08-07T14:57:32;17.93;67.64
64961;SHT31;51487;52.266;10.542;2023-08-07T14:59:58;17.93;67.55
64961;SHT31;51487;52.266;10.542;2023-08-07T15:02:23;17.86;67.82
64961;SHT31;51487;52.266;10.542;2023-08-07T15:04:49;17.76;68.31
64961;SHT31;51487;52.266;10.542;2023-08-07T15:07:14;17.86;68.31
64961;SHT31;51487;52.266;10.542;2023-08-07T15:09:40;18.07;68.78
64961;SHT31;51487;52.266;10.542;2023-08-07T15:12:06;18.27;67.75
64961;SHT31;51487;52.266;10.542;2023-08-07T15:14:32;18.27;67.58
64961;SHT31;51487;52.266;10.542;2023-08-07T15:16:58;18.31;68.08
64961;SHT31;51487;52.266;10.542;2023-08-07T15:19:23;18.11;67.79